ePrivacy and GPDR Cookie Consent by Cookie Consent
EmailTwitter


Observations de surface / Québec / CYUL (71627)

Régions: Québec | Canada | États-Unis | Europe | France | UK | Ailleurs
Station
Affichage
Infos & localisation pour CYUL (71627) | Aide pour décoder les METARs

Observations prises le 2021-05-06 à 21H00 UTC à MONTREAL INTL A, QB (CYUL)

Etat du ciel: partiellement nuageux.

Température: 15.0 Celsius

Point de rosée: -5.0 Celsius

Humidité relative: 25%

Vents: Ouest à 24 km/h ou 13 noeuds.

Rafale du vent: 39 km/h ou 21 noeuds.

Pression au niveau moyen de la mer: 101.27 kilopascals.

Calage altimétrique: 101.25 kilopascals ou 29.90 pouces de mercure.

Visibilité horizontale: 30.00 milles terrestres ou 48.00 kilomètres.

Hauteur du plafond: 2591 mètres ( 8500 pieds ).

Observation METAR:

CYUL 062100Z 27013G21KT 30SM BKN085 15/M05 A2990 RMK AC6 SLP127 DENSITY ALT

200FT=